Time;durP1;ratioP1;P1;durP2;ratioP2;P2;SDS_P1;SDS_P2;PMS_P1;PMS_P2;Temp;Humidity;BMP_temperature;BMP_pressure;BME280_temperature;BME280_humidity;BME280_pressure;Samples;Min_cycle;Max_cycle;Signal;HPM_P1;HPM_P2
2023/11/02 00:01:32;;;;;;;;;;;;;;;21.87;53.23;100717.44;7392889;19;1874;-49
2023/11/02 00:04:01;;;;;;;;;;;;;;;21.87;53.07;100693.22;7394412;19;1457;-49
2023/11/02 00:06:37;;;;;;;;;;;;;;;21.82;53.15;100702.59;7394480;19;1509;-49
2023/11/02 00:09:20;;;;;;;;;;;;;;;21.87;53.01;100687.84;7394046;19;1488;-49
2023/11/02 00:11:52;;;;;;;;;;;;;;;21.81;53.25;100676.69;7394022;19;1479;-49
2023/11/02 00:14:20;;;;;;;;;;;;;;;21.83;52.88;100684.59;7394690;19;1520;-49
2023/11/02 00:16:52;;;;;;;;;;;;;;;21.85;53.26;100683.44;7394110;19;1568;-49
2023/11/02 00:19:28;;;;;;;;;;;;;;;21.85;53.30;100683.44;7393540;19;1422;-50
2023/11/02 00:21:56;;;;;;;;;;;;;;;21.83;53.14;100682.75;7391562;19;1885;-49
2023/11/02 00:24:25;;;;;;;;;;;;;;;21.82;53.19;100672.97;7393904;19;1449;-49
2023/11/02 00:26:53;;;;;;;;;;;;;;;21.81;53.16;100690.16;7394801;19;1477;-49
2023/11/02 00:29:21;;;;;;;;;;;;;;;21.87;53.17;100687.84;7394630;19;1480;-49
2023/11/02 00:31:52;;;;;;;;;;;;;;;21.89;53.14;100688.53;7393334;19;1493;-49
2023/11/02 00:34:20;;;;;;;;;;;;;;;21.85;53.31;100691.53;7393744;19;1742;-49
2023/11/02 00:36:49;;;;;;;;;;;;;;;21.84;53.34;100688.97;7394189;19;1842;-49
2023/11/02 00:39:17;;;;;;;;;;;;;;;21.87;53.12;100685.16;7393011;19;1655;-49
2023/11/02 00:41:47;;;;;;;;;;;;;;;21.82;53.05;100675.66;7391534;19;1853;-49
2023/11/02 00:44:17;;;;;;;;;;;;;;;21.83;53.29;100674.69;7393411;19;1465;-49
2023/11/02 00:46:46;;;;;;;;;;;;;;;21.81;53.26;100665.06;7392407;19;1512;-50
2023/11/02 00:49:22;;;;;;;;;;;;;;;21.85;53.01;100675.38;7393159;19;1754;-49
2023/11/02 00:51:56;;;;;;;;;;;;;;;21.89;52.96;100691.22;7392364;19;1572;-49
2023/11/02 00:54:52;;;;;;;;;;;;;;;21.88;53.22;100673.38;7392478;19;1605;-51
2023/11/02 00:57:23;;;;;;;;;;;;;;;21.81;53.26;100668.59;7393967;19;1397;-50
2023/11/02 00:59:52;;;;;;;;;;;;;;;21.79;53.27;100664.38;7391272;19;1446;-52
2023/11/02 01:02:21;;;;;;;;;;;;;;;21.89;53.04;100686.66;7394628;19;1505;-50
2023/11/02 01:04:55;;;;;;;;;;;;;;;21.84;53.15;100672.81;7394253;19;1362;-51
2023/11/02 01:07:24;;;;;;;;;;;;;;;21.82;53.36;100681.03;7391980;19;1410;-50
2023/11/02 01:10:00;;;;;;;;;;;;;;;21.90;53.16;100682.13;7391789;19;1496;-50
2023/11/02 01:12:31;;;;;;;;;;;;;;;21.31;53.33;100558.88;7392710;19;1311;-50
2023/11/02 01:15:00;;;;;;;;;;;;;;;21.88;53.33;100657.22;7394055;19;1385;-50
2023/11/02 01:17:33;;;;;;;;;;;;;;;21.80;53.34;100666.91;7393082;19;1416;-50
2023/11/02 01:20:11;;;;;;;;;;;;;;;21.82;53.46;100666.75;7392942;19;1861;-50
2023/11/02 01:22:50;;;;;;;;;;;;;;;21.85;53.35;100669.97;7392022;19;1279;-50
2023/11/02 01:25:19;;;;;;;;;;;;;;;21.91;53.34;100676.59;7394245;19;1342;-51
2023/11/02 01:27:48;;;;;;;;;;;;;;;21.83;53.58;100672.00;7391457;19;1607;-50
2023/11/02 01:30:54;;;;;;;;;;;;;;;21.85;53.34;100648.44;7392260;19;1623;-50
2023/11/02 01:33:37;;;;;;;;;;;;;;;21.84;53.37;100649.47;7390996;19;1379;-49
2023/11/02 01:36:08;;;;;;;;;;;;;;;21.80;53.29;100645.38;7389988;19;2379;-49
2023/11/02 01:38:38;;;;;;;;;;;;;;;21.87;53.27;100644.78;7390989;19;1509;-50
2023/11/02 01:41:10;;;;;;;;;;;;;;;21.79;53.61;100630.22;7389369;19;1849;-50
2023/11/02 01:43:41;;;;;;;;;;;;;;;21.78;53.80;100623.16;7391069;19;1383;-50
2023/11/02 01:46:13;;;;;;;;;;;;;;;21.80;53.73;100639.16;7390722;19;1445;-49
2023/11/02 01:48:46;;;;;;;;;;;;;;;21.84;53.43;100625.25;7391069;19;1300;-49
2023/11/02 01:51:20;;;;;;;;;;;;;;;21.82;53.33;100624.53;7390936;19;1544;-50
2023/11/02 01:53:53;;;;;;;;;;;;;;;21.83;53.38;100626.22;7390467;19;1468;-49
2023/11/02 01:56:33;;;;;;;;;;;;;;;21.80;53.50;100609.53;7392753;19;1835;-49
2023/11/02 01:59:06;;;;;;;;;;;;;;;21.78;53.45;100617.75;7391270;19;1363;-51
2023/11/02 02:01:36;;;;;;;;;;;;;;;21.82;53.43;100610.22;7389650;19;1843;-51
2023/11/02 02:04:08;;;;;;;;;;;;;;;21.76;53.61;100608.16;7387583;19;1445;-49
2023/11/02 02:06:49;;;;;;;;;;;;;;;21.74;53.77;100613.69;7395488;19;1374;-49
2023/11/02 02:09:22;;;;;;;;;;;;;;;21.76;53.72;100610.84;7396808;19;1540;-49
2023/11/02 02:11:54;;;;;;;;;;;;;;;21.74;53.73;100618.25;7397606;19;1399;-49
2023/11/02 02:14:28;;;;;;;;;;;;;;;21.75;53.74;100593.88;7397137;19;1370;-50
2023/11/02 02:17:01;;;;;;;;;;;;;;;21.77;53.67;100597.25;7396941;19;1438;-49
2023/11/02 02:19:50;;;;;;;;;;;;;;;21.80;53.34;100596.91;7397626;19;1520;-50
2023/11/02 02:22:24;;;;;;;;;;;;;;;21.78;53.68;100611.53;7393343;19;1844;-49
2023/11/02 02:24:55;;;;;;;;;;;;;;;21.81;53.32;100614.78;7395890;19;1410;-49
2023/11/02 02:27:38;;;;;;;;;;;;;;;21.90;53.30;100615.66;7397848;19;1432;-49
2023/11/02 02:30:21;;;;;;;;;;;;;;;21.94;53.43;100613.50;7397153;19;1432;-50
2023/11/02 02:32:59;;;;;;;;;;;;;;;21.94;53.29;100608.13;7396681;19;1548;-50
2023/11/02 02:35:34;;;;;;;;;;;;;;;21.92;53.39;100607.44;7394560;19;1366;-49
2023/11/02 02:38:07;;;;;;;;;;;;;;;21.85;53.30;100610.75;7394764;19;1576;-50
2023/11/02 02:40:36;;;;;;;;;;;;;;;21.86;53.61;100606.22;7396482;19;1853;-49
2023/11/02 02:43:06;;;;;;;;;;;;;;;21.86;53.50;100600.81;7396467;19;1547;-50
2023/11/02 02:45:33;;;;;;;;;;;;;;;21.87;53.43;100588.22;7396814;19;1548;-49
2023/11/02 02:48:03;;;;;;;;;;;;;;;21.82;53.60;100578.75;7395818;19;1591;-49
2023/11/02 02:50:34;;;;;;;;;;;;;;;21.82;53.46;100573.38;7397542;19;1462;-49
2023/11/02 02:53:03;;;;;;;;;;;;;;;21.76;53.60;100567.78;7396138;19;1444;-49
2023/11/02 02:55:33;;;;;;;;;;;;;;;21.78;53.49;100566.63;7398505;19;1250;-49
2023/11/02 02:58:04;;;;;;;;;;;;;;;21.76;53.61;100563.25;7396026;19;1553;-49
2023/11/02 03:00:34;;;;;;;;;;;;;;;21.81;53.59;100576.25;7396043;19;1846;-50
2023/11/02 03:03:03;;;;;;;;;;;;;;;21.81;53.63;100565.47;7396012;19;1453;-49
2023/11/02 03:05:35;;;;;;;;;;;;;;;21.81;53.50;100547.47;7396494;19;1548;-49
2023/11/02 03:08:05;;;;;;;;;;;;;;;21.80;53.34;100548.47;7395721;19;1501;-49
2023/11/02 03:10:35;;;;;;;;;;;;;;;21.83;53.41;100558.09;7396023;19;1493;-50
2023/11/02 03:13:04;;;;;;;;;;;;;;;21.81;53.74;100546.63;7396339;19;1378;-49
2023/11/02 03:15:33;;;;;;;;;;;;;;;21.79;53.51;100548.66;7398072;19;1449;-50
2023/11/02 03:18:07;;;;;;;;;;;;;;;21.78;53.61;100547.78;7397396;19;1451;-49
2023/11/02 03:20:38;;;;;;;;;;;;;;;21.77;53.74;100543.41;7395276;19;1902;-49
2023/11/02 03:23:10;;;;;;;;;;;;;;;21.78;53.82;100549.63;7395441;19;1358;-49
2023/11/02 03:25:47;;;;;;;;;;;;;;;21.73;53.56;100528.59;7395310;19;1952;-49
2023/11/02 03:28:20;;;;;;;;;;;;;;;21.74;53.55;100519.50;7395532;19;1445;-49
2023/11/02 03:30:55;;;;;;;;;;;;;;;21.76;53.58;100522.88;7396330;19;1382;-49
2023/11/02 03:33:30;;;;;;;;;;;;;;;21.74;53.65;100505.19;7395800;19;1501;-49
2023/11/02 03:36:06;;;;;;;;;;;;;;;21.77;53.47;100515.66;7392891;19;1425;-49
2023/11/02 03:38:45;;;;;;;;;;;;;;;21.76;53.68;100506.72;7394585;19;1362;-49
2023/11/02 03:41:18;;;;;;;;;;;;;;;21.77;53.36;100489.59;7394052;19;1843;-49
2023/11/02 03:43:52;;;;;;;;;;;;;;;21.80;53.33;100491.94;7393786;19;1488;-49
2023/11/02 03:46:29;;;;;;;;;;;;;;;21.79;53.57;100489.44;7394377;19;1440;-49
2023/11/02 03:49:06;;;;;;;;;;;;;;;21.79;53.62;100478.66;7394706;19;1963;-49
2023/11/02 03:51:42;;;;;;;;;;;;;;;21.77;53.50;100477.97;7394177;19;1495;-49
2023/11/02 03:54:15;;;;;;;;;;;;;;;21.77;53.67;100500.34;7392638;19;1572;-49
2023/11/02 03:56:49;;;;;;;;;;;;;;;21.76;53.68;100504.03;7396245;19;1369;-49
2023/11/02 03:59:22;;;;;;;;;;;;;;;21.75;53.72;100507.75;7395102;19;1742;-49
2023/11/02 04:01:55;;;;;;;;;;;;;;;21.74;53.58;100515.97;7392604;19;1859;-50
2023/11/02 04:04:28;;;;;;;;;;;;;;;21.29;53.41;100425.53;7394417;19;1541;-49
2023/11/02 04:07:04;;;;;;;;;;;;;;;21.79;53.66;100498.34;7393579;19;1481;-49
2023/11/02 04:09:37;;;;;;;;;;;;;;;21.77;53.51;100486.91;7393769;19;1584;-49
2023/11/02 04:12:09;;;;;;;;;;;;;;;21.76;53.75;100495.97;7394189;19;1436;-49
2023/11/02 04:14:41;;;;;;;;;;;;;;;21.78;53.63;100485.88;7394579;19;1383;-49
2023/11/02 04:17:09;;;;;;;;;;;;;;;21.75;53.77;100461.16;7393513;19;1485;-49
2023/11/02 04:19:37;;;;;;;;;;;;;;;21.76;53.69;100466.34;7393296;19;1469;-50
2023/11/02 04:22:09;;;;;;;;;;;;;;;21.75;53.75;100453.91;7392911;19;1847;-50
2023/11/02 04:24:37;;;;;;;;;;;;;;;21.73;53.75;100461.31;7393096;19;1375;-50
2023/11/02 04:27:06;;;;;;;;;;;;;;;21.81;53.84;100479.34;7392930;19;1990;-49
2023/11/02 04:29:34;;;;;;;;;;;;;;;21.79;53.72;100476.81;7393557;19;1533;-49
2023/11/02 04:32:02;;;;;;;;;;;;;;;21.78;53.55;100464.34;7394491;19;1843;-49
2023/11/02 04:34:30;;;;;;;;;;;;;;;21.74;53.83;100468.34;7393967;19;1902;-49
2023/11/02 04:36:59;;;;;;;;;;;;;;;21.75;53.93;100469.22;7392882;19;1469;-49
2023/11/02 04:39:30;;;;;;;;;;;;;;;21.79;53.66;100443.69;7392964;19;1731;-50
2023/11/02 04:41:58;;;;;;;;;;;;;;;21.76;53.91;100449.38;7391049;19;1964;-50
2023/11/02 04:44:26;;;;;;;;;;;;;;;21.75;53.96;100456.59;7391878;19;1493;-49
2023/11/02 04:46:55;;;;;;;;;;;;;;;21.75;53.86;100469.22;7391969;19;1481;-50
2023/11/02 04:49:23;;;;;;;;;;;;;;;21.81;53.87;100471.28;7392626;19;1502;-50
2023/11/02 04:52:04;;;;;;;;;;;;;;;21.77;54.12;100454.59;7393443;19;1763;-48
2023/11/02 04:54:35;;;;;;;;;;;;;;;21.85;53.96;100480.72;7393502;19;1535;-48
2023/11/02 04:57:05;;;;;;;;;;;;;;;21.90;53.77;100439.84;7393109;19;1580;-48
2023/11/02 04:59:37;;;;;;;;;;;;;;;21.90;53.93;100453.28;7392592;19;1821;-49
2023/11/02 05:02:06;;;;;;;;;;;;;;;21.80;54.12;100462.34;7393025;19;1873;-49
2023/11/02 05:04:34;;;;;;;;;;;;;;;21.90;53.99;100474.84;7394899;19;1807;-49
2023/11/02 05:07:02;;;;;;;;;;;;;;;21.91;53.74;100455.00;7393036;19;1520;-50
2023/11/02 05:09:31;;;;;;;;;;;;;;;21.73;54.11;100447.84;7393276;19;1814;-48
2023/11/02 05:12:01;;;;;;;;;;;;;;;21.89;53.99;100443.56;7394538;19;1568;-49
2023/11/02 05:14:30;;;;;;;;;;;;;;;21.93;53.90;100463.75;7394409;19;1817;-49
2023/11/02 05:16:58;;;;;;;;;;;;;;;21.95;54.01;100470.66;7393691;19;1455;-49
2023/11/02 05:19:26;;;;;;;;;;;;;;;21.99;53.94;100476.56;7393342;19;1731;-49
2023/11/02 05:21:54;;;;;;;;;;;;;;;22.09;53.60;100485.34;7392061;19;1864;-49
2023/11/02 05:24:23;;;;;;;;;;;;;;;21.95;54.43;100483.28;7393362;19;1724;-49
2023/11/02 05:26:51;;;;;;;;;;;;;;;22.08;54.01;100459.41;7308860;19;13665;-49
2023/11/02 05:29:23;;;;;;;;;;;;;;;21.88;55.09;100471.47;7393016;19;1725;-48
2023/11/02 05:31:51;;;;;;;;;;;;;;;21.76;54.76;100455.59;7394103;19;1540;-49
2023/11/02 05:34:19;;;;;;;;;;;;;;;21.99;54.69;100460.41;7393920;19;1739;-49
2023/11/02 05:36:48;;;;;;;;;;;;;;;21.79;55.24;100462.53;7394523;19;1096;-48
2023/11/02 05:39:16;;;;;;;;;;;;;;;22.01;54.96;100464.63;7394416;19;1924;-48
2023/11/02 05:41:45;;;;;;;;;;;;;;;21.90;55.38;100475.66;7399897;19;1855;-48
2023/11/02 05:44:13;;;;;;;;;;;;;;;22.06;54.93;100480.28;7400793;19;1544;-49
2023/11/02 05:46:45;;;;;;;;;;;;;;;22.08;54.78;100485.50;7400194;19;1707;-49
2023/11/02 05:49:13;;;;;;;;;;;;;;;22.07;54.84;100479.28;7400552;19;1694;-50
2023/11/02 05:51:41;;;;;;;;;;;;;;;21.98;54.96;100482.94;7399939;19;1393;-49
2023/11/02 05:54:10;;;;;;;;;;;;;;;21.88;48.81;100471.47;7399315;19;1437;-49
2023/11/02 05:56:38;;;;;;;;;;;;;;;21.84;54.61;100477.19;7400785;19;1033;-48
2023/11/02 05:59:06;;;;;;;;;;;;;;;21.88;53.88;100480.38;7400044;19;1907;-48
2023/11/02 06:01:34;;;;;;;;;;;;;;;21.77;54.15;100481.50;7399020;19;1865;-48
2023/11/02 06:04:05;;;;;;;;;;;;;;;21.82;52.19;100486.41;7400006;19;1769;-48
2023/11/02 06:06:34;;;;;;;;;;;;;;;21.77;53.07;100484.19;7398318;19;1751;-48
2023/11/02 06:09:02;;;;;;;;;;;;;;;21.85;54.01;100486.94;7394893;19;1726;-48
2023/11/02 06:11:31;;;;;;;;;;;;;;;21.92;53.83;100470.97;7394877;19;1800;-48
2023/11/02 06:14:00;;;;;;;;;;;;;;;21.98;53.85;100494.53;7397523;19;1576;-48
2023/11/02 06:16:29;;;;;;;;;;;;;;;21.98;53.92;100491.00;7395965;19;1749;-48
2023/11/02 06:18:57;;;;;;;;;;;;;;;21.93;53.76;100487.97;7395575;19;1628;-48
2023/11/02 06:21:28;;;;;;;;;;;;;;;21.87;54.18;100499.41;7395791;19;1795;-48
2023/11/02 06:23:56;;;;;;;;;;;;;;;21.76;54.42;100508.56;7396450;19;1837;-48
2023/11/02 06:26:25;;;;;;;;;;;;;;;21.56;54.54;100498.03;7398782;19;1577;-48
2023/11/02 06:28:53;;;;;;;;;;;;;;;21.74;54.24;100491.75;7396887;19;1115;-48
2023/11/02 06:31:21;;;;;;;;;;;;;;;21.65;49.79;100501.63;7399548;19;1834;-49
2023/11/02 06:33:50;;;;;;;;;;;;;;;21.60;47.26;100494.03;7399072;19;1846;-49
2023/11/02 06:36:20;;;;;;;;;;;;;;;21.45;50.09;100492.94;7397620;19;1829;-49
2023/11/02 06:38:50;;;;;;;;;;;;;;;21.39;50.34;100499.75;7395681;19;1468;-50
2023/11/02 06:41:19;;;;;;;;;;;;;;;21.28;50.38;100491.94;7396752;19;1466;-48
2023/11/02 06:43:49;;;;;;;;;;;;;;;21.13;50.45;100491.69;7393764;19;1865;-48
2023/11/02 06:46:17;;;;;;;;;;;;;;;21.15;50.39;100486.13;7393697;19;1827;-48
2023/11/02 06:48:45;;;;;;;;;;;;;;;21.16;50.56;100485.97;7393520;19;1448;-48
2023/11/02 06:51:14;;;;;;;;;;;;;;;21.17;50.68;100476.03;7391601;19;1777;-48
2023/11/02 06:53:42;;;;;;;;;;;;;;;21.13;50.52;100474.66;7393370;19;1878;-48
2023/11/02 06:56:13;;;;;;;;;;;;;;;21.10;50.10;100475.00;7394844;19;1094;-48
2023/11/02 06:58:41;;;;;;;;;;;;;;;21.10;50.36;100477.69;7393090;19;1920;-48
2023/11/02 07:01:09;;;;;;;;;;;;;;;21.04;50.07;100477.31;7393492;19;1675;-48
2023/11/02 07:03:38;;;;;;;;;;;;;;;21.06;50.24;100478.00;7390793;19;1870;-47
2023/11/02 07:06:07;;;;;;;;;;;;;;;21.07;50.07;100465.41;7391316;19;1644;-48
2023/11/02 07:08:35;;;;;;;;;;;;;;;21.03;50.13;100464.88;7391963;19;1720;-48
2023/11/02 07:11:04;;;;;;;;;;;;;;;21.01;49.86;100466.88;7393933;19;1849;-48
2023/11/02 07:13:35;;;;;;;;;;;;;;;20.95;50.04;100459.44;7393351;19;1708;-48
2023/11/02 07:16:03;;;;;;;;;;;;;;;20.97;49.91;100468.19;7395922;19;1710;-48
2023/11/02 07:18:32;;;;;;;;;;;;;;;21.01;49.90;100463.34;7398325;19;1771;-48
2023/11/02 07:21:00;;;;;;;;;;;;;;;21.00;49.50;100459.81;7398301;19;1730;-48
2023/11/02 07:23:29;;;;;;;;;;;;;;;21.01;49.53;100460.66;7396761;19;2456;-48
2023/11/02 07:25:57;;;;;;;;;;;;;;;21.02;49.73;100455.09;7398467;19;1968;-47
2023/11/02 07:28:25;;;;;;;;;;;;;;;21.09;49.31;100451.78;7396332;19;1599;-48
2023/11/02 07:30:56;;;;;;;;;;;;;;;21.12;49.29;100459.56;7396459;19;1436;-47
2023/11/02 07:33:25;;;;;;;;;;;;;;;21.03;49.13;100456.81;7397181;19;1707;-48
2023/11/02 07:35:53;;;;;;;;;;;;;;;21.12;49.11;100473.00;7396632;19;1382;-48
2023/11/02 07:38:22;;;;;;;;;;;;;;;21.03;49.07;100454.13;7395876;19;1363;-48
2023/11/02 07:40:50;;;;;;;;;;;;;;;21.00;49.29;100467.03;7396199;19;1445;-48
2023/11/02 07:43:19;;;;;;;;;;;;;;;21.00;48.92;100442.84;7395464;19;1850;-48
2023/11/02 07:45:47;;;;;;;;;;;;;;;21.03;49.20;100438.00;7396264;19;1328;-48
2023/11/02 07:48:18;;;;;;;;;;;;;;;20.95;48.85;100429.88;7396211;19;1451;-48
2023/11/02 07:50:46;;;;;;;;;;;;;;;20.97;49.10;100444.00;7395997;19;1346;-47
2023/11/02 07:53:14;;;;;;;;;;;;;;;20.98;48.78;100429.53;7396267;19;1727;-48
2023/11/02 07:55:43;;;;;;;;;;;;;;;21.12;48.58;100446.13;7397572;19;1121;-48
2023/11/02 07:58:12;;;;;;;;;;;;;;;21.16;48.38;100434.03;7394713;19;1473;-48
2023/11/02 08:00:40;;;;;;;;;;;;;;;21.21;48.35;100447.88;7395101;19;1561;-48
2023/11/02 08:03:08;;;;;;;;;;;;;;;21.13;48.43;100451.34;7391541;19;1877;-47
2023/11/02 08:05:40;;;;;;;;;;;;;;;21.12;48.42;100435.38;7396571;19;1616;-48
2023/11/02 08:08:08;;;;;;;;;;;;;;;21.15;48.10;100446.66;7395491;19;1807;-48
2023/11/02 08:10:36;;;;;;;;;;;;;;;21.22;47.93;100447.69;7394819;19;1662;-48
2023/11/02 08:13:05;;;;;;;;;;;;;;;21.24;47.83;100442.16;7396338;19;1746;-48
2023/11/02 08:15:33;;;;;;;;;;;;;;;21.23;48.22;100424.34;7397412;19;1056;-48
2023/11/02 08:18:02;;;;;;;;;;;;;;;21.30;48.11;100433.47;7396895;19;1896;-48
2023/11/02 08:20:30;;;;;;;;;;;;;;;21.36;47.77;100430.13;7396234;19;1827;-48
2023/11/02 08:23:01;;;;;;;;;;;;;;;21.38;47.68;100411.97;7394791;19;1921;-48
2023/11/02 08:25:29;;;;;;;;;;;;;;;21.25;47.89;100419.66;7395757;19;1830;-48
2023/11/02 08:27:59;;;;;;;;;;;;;;;21.33;47.96;100411.63;7395574;19;1809;-48
2023/11/02 08:30:29;;;;;;;;;;;;;;;21.25;47.95;100420.50;7394921;19;1746;-47
2023/11/02 08:32:57;;;;;;;;;;;;;;;21.21;47.84;100419.13;7395393;19;1808;-48
2023/11/02 08:35:26;;;;;;;;;;;;;;;21.15;47.79;100402.75;7393275;19;1697;-48
2023/11/02 08:37:54;;;;;;;;;;;;;;;21.25;47.69;100408.91;7393375;19;1386;-48
2023/11/02 08:40:25;;;;;;;;;;;;;;;21.28;47.27;100416.63;7395190;19;1726;-48
2023/11/02 08:42:53;;;;;;;;;;;;;;;21.38;47.45;100409.28;7394584;19;1849;-48
2023/11/02 08:45:21;;;;;;;;;;;;;;;21.50;47.13;100412.56;7395606;19;1818;-47
2023/11/02 08:47:50;;;;;;;;;;;;;;;21.60;46.99;100413.28;7394901;19;1578;-49
2023/11/02 08:50:18;;;;;;;;;;;;;;;21.62;46.94;100380.84;7394678;19;1774;-48
2023/11/02 08:52:46;;;;;;;;;;;;;;;21.67;46.78;100413.50;7394320;19;1774;-48
2023/11/02 08:55:14;;;;;;;;;;;;;;;21.73;47.04;100417.41;7393363;19;2455;-47
2023/11/02 08:57:46;;;;;;;;;;;;;;;21.60;46.84;100390.94;7393661;19;1522;-48
2023/11/02 09:00:14;;;;;;;;;;;;;;;21.61;46.70;100403.41;7394416;19;1646;-47
2023/11/02 09:02:43;;;;;;;;;;;;;;;21.61;46.95;100403.41;7394504;19;1836;-48
2023/11/02 09:05:11;;;;;;;;;;;;;;;21.59;46.71;100405.41;7394616;19;1742;-48
2023/11/02 09:07:40;;;;;;;;;;;;;;;21.52;47.02;100394.44;7394059;19;1472;-48
2023/11/02 09:10:08;;;;;;;;;;;;;;;21.36;47.26;100399.69;7394194;19;1841;-48
2023/11/02 09:12:37;;;;;;;;;;;;;;;21.34;47.44;100391.78;7378979;19;1928;-48
2023/11/02 09:15:08;;;;;;;;;;;;;;;21.27;47.47;100385.38;7401286;19;1444;-47
2023/11/02 09:17:37;;;;;;;;;;;;;;;21.30;47.51;100379.66;7401298;19;1466;-48
2023/11/02 09:20:10;;;;;;;;;;;;;;;21.28;47.42;100364.69;7401634;19;1547;-48
2023/11/02 09:22:38;;;;;;;;;;;;;;;21.18;47.71;100379.09;7401428;19;1820;-49
2023/11/02 09:25:07;;;;;;;;;;;;;;;21.14;47.43;100363.44;7401703;19;1809;-48
2023/11/02 09:27:35;;;;;;;;;;;;;;;21.05;47.83;100371.47;7400087;19;1833;-49
2023/11/02 09:30:05;;;;;;;;;;;;;;;21.02;47.88;100361.03;7399556;19;1754;-47
2023/11/02 09:32:37;;;;;;;;;;;;;;;21.04;47.96;100364.38;7401245;19;1715;-47
2023/11/02 09:35:05;;;;;;;;;;;;;;;21.08;47.97;100370.31;7400667;19;1818;-48
2023/11/02 09:37:34;;;;;;;;;;;;;;;21.06;47.85;100361.56;7400483;19;1624;-48
2023/11/02 09:40:03;;;;;;;;;;;;;;;20.97;48.18;100363.34;7401250;19;1763;-47
2023/11/02 09:42:31;;;;;;;;;;;;;;;20.95;48.26;100341.16;7401459;19;1552;-48
2023/11/02 09:45:00;;;;;;;;;;;;;;;20.97;48.52;100347.22;7399848;19;1836;-48
2023/11/02 09:47:29;;;;;;;;;;;;;;;20.93;48.51;100332.44;7401458;19;1862;-47
2023/11/02 09:50:00;;;;;;;;;;;;;;;20.90;48.66;100329.19;7400704;19;1815;-47
2023/11/02 09:52:28;;;;;;;;;;;;;;;20.92;48.85;100324.50;7400516;19;1845;-47
2023/11/02 09:54:56;;;;;;;;;;;;;;;20.93;48.92;100315.44;7400008;19;1715;-47
2023/11/02 09:57:25;;;;;;;;;;;;;;;20.94;48.84;100309.06;7400944;19;1723;-47
2023/11/02 09:59:53;;;;;;;;;;;;;;;20.92;48.90;100319.97;7400315;19;1881;-48
2023/11/02 10:02:22;;;;;;;;;;;;;;;20.94;49.10;100304.53;7400531;19;1805;-47
2023/11/02 10:04:50;;;;;;;;;;;;;;;20.92;48.85;100294.94;7398862;19;1850;-48
2023/11/02 10:07:23;;;;;;;;;;;;;;;20.92;48.86;100285.03;7399363;19;1822;-48
2023/11/02 10:09:51;;;;;;;;;;;;;;;20.95;49.08;100284.72;7399745;19;1838;-47
2023/11/02 10:12:19;;;;;;;;;;;;;;;20.98;49.04;100288.94;7399975;19;1842;-47
2023/11/02 10:14:48;;;;;;;;;;;;;;;20.98;49.16;100284.38;7384709;19;1771;-48
2023/11/02 10:17:17;;;;;;;;;;;;;;;21.01;49.42;100281.41;7399559;19;1957;-48
2023/11/02 10:19:45;;;;;;;;;;;;;;;21.00;49.44;100271.63;7398520;19;1462;-48
2023/11/02 10:22:13;;;;;;;;;;;;;;;21.01;49.55;100288.63;7399820;19;1711;-47
2023/11/02 10:24:44;;;;;;;;;;;;;;;21.00;49.50;100273.47;7395671;19;1847;-47
2023/11/02 10:27:13;;;;;;;;;;;;;;;21.03;49.51;100260.56;7398650;19;1782;-48
2023/11/02 10:29:45;;;;;;;;;;;;;;;21.00;49.42;100254.66;7400043;19;1510;-48
2023/11/02 10:32:13;;;;;;;;;;;;;;;20.97;49.83;100255.84;7398982;19;1809;-47
2023/11/02 10:34:42;;;;;;;;;;;;;;;21.01;49.67;100251.00;7399041;19;1465;-48
2023/11/02 10:37:10;;;;;;;;;;;;;;;21.03;49.68;100248.97;7398853;19;1672;-48
2023/11/02 10:39:39;;;;;;;;;;;;;;;21.01;49.80;100249.13;7399192;19;1817;-48
2023/11/02 10:42:10;;;;;;;;;;;;;;;21.02;49.84;100231.97;7399489;19;1949;-47
2023/11/02 10:44:40;;;;;;;;;;;;;;;21.02;49.74;100248.13;7398039;19;1853;-47
2023/11/02 10:47:08;;;;;;;;;;;;;;;21.01;49.90;100249.13;7398082;19;1587;-47
2023/11/02 10:49:38;;;;;;;;;;;;;;;21.06;49.96;100246.78;7398653;19;1794;-48
2023/11/02 10:52:08;;;;;;;;;;;;;;;21.06;49.73;100236.03;7399267;19;1667;-48
2023/11/02 10:54:40;;;;;;;;;;;;;;;21.03;50.07;100224.78;7398726;19;1924;-47
2023/11/02 10:57:17;;;;;;;;;;;;;;;21.07;50.03;100231.53;7398461;19;1826;-48
2023/11/02 10:59:45;;;;;;;;;;;;;;;21.14;50.03;100223.63;7398630;19;1565;-48
2023/11/02 11:02:14;;;;;;;;;;;;;;;21.34;49.48;100213.44;7398601;19;1766;-48
2023/11/02 11:04:43;;;;;;;;;;;;;;;21.38;49.61;100228.25;7397568;19;1856;-48
2023/11/02 11:07:12;;;;;;;;;;;;;;;21.35;49.74;100223.22;7397214;19;1834;-48
2023/11/02 11:09:42;;;;;;;;;;;;;;;21.40;49.61;100237.81;7396710;19;1758;-48
2023/11/02 11:12:17;;;;;;;;;;;;;;;21.36;49.67;100223.03;7397026;19;1827;-48
2023/11/02 11:14:47;;;;;;;;;;;;;;;21.30;50.09;100222.84;7383162;19;1734;-48
2023/11/02 11:17:15;;;;;;;;;;;;;;;21.28;50.31;100223.00;7397230;19;1750;-48
2023/11/02 11:19:44;;;;;;;;;;;;;;;21.21;50.45;100213.94;7396740;19;1832;-48
2023/11/02 11:22:14;;;;;;;;;;;;;;;21.17;50.58;100220.59;7397706;19;1743;-48
2023/11/02 11:24:44;;;;;;;;;;;;;;;21.12;50.75;100198.75;7396366;19;1834;-48
2023/11/02 11:27:15;;;;;;;;;;;;;;;21.17;50.51;100185.66;7397814;19;1624;-47
2023/11/02 11:29:45;;;;;;;;;;;;;;;21.13;50.73;100193.22;7397319;19;1762;-47
2023/11/02 11:32:28;;;;;;;;;;;;;;;21.09;50.75;100191.88;7397566;19;1501;-48
2023/11/02 11:35:10;;;;;;;;;;;;;;;21.05;51.03;100203.97;7396790;19;1793;-47
2023/11/02 11:37:41;;;;;;;;;;;;;;;21.08;51.03;100192.03;7394450;19;1763;-48
2023/11/02 11:40:10;;;;;;;;;;;;;;;21.07;51.12;100196.56;7398042;19;1785;-48
2023/11/02 11:42:53;;;;;;;;;;;;;;;21.10;51.09;100190.03;7397757;19;1922;-48
2023/11/02 11:45:32;;;;;;;;;;;;;;;21.06;51.16;100184.13;7395998;19;1855;-49
2023/11/02 11:48:00;;;;;;;;;;;;;;;21.11;51.04;100183.63;7398163;19;1766;-49
2023/11/02 11:50:35;;;;;;;;;;;;;;;21.09;51.16;100183.81;7397262;19;1932;-48
2023/11/02 11:53:10;;;;;;;;;;;;;;;21.04;51.42;100184.28;7397726;19;1480;-48
2023/11/02 11:55:39;;;;;;;;;;;;;;;21.06;51.48;100184.13;7396968;19;1717;-49
2023/11/02 11:58:08;;;;;;;;;;;;;;;21.06;51.48;100166.13;7395390;19;1829;-49
2023/11/02 12:00:59;;;;;;;;;;;;;;;21.00;51.50;100164.09;7395832;19;1698;-48
2023/11/02 12:03:43;;;;;;;;;;;;;;;21.02;51.68;100172.00;7396645;19;2058;-47
2023/11/02 12:06:12;;;;;;;;;;;;;;;21.02;51.65;100162.09;7395676;19;1722;-49
2023/11/02 12:08:50;;;;;;;;;;;;;;;21.01;51.72;100171.19;7395498;19;1802;-49
2023/11/02 12:11:24;;;;;;;;;;;;;;;21.11;51.56;100159.41;7395860;19;1731;-49
2023/11/02 12:13:57;;;;;;;;;;;;;;;21.10;51.54;100163.13;7381021;19;1680;-48
2023/11/02 12:16:32;;;;;;;;;;;;;;;21.09;51.61;100151.53;7395858;19;1800;-49
2023/11/02 12:19:01;;;;;;;;;;;;;;;21.03;51.92;100147.66;7396625;19;1706;-50
2023/11/02 12:21:30;;;;;;;;;;;;;;;21.01;51.86;100143.47;7396491;19;1434;-49
2023/11/02 12:23:58;;;;;;;;;;;;;;;21.03;51.67;100142.28;7396328;19;1857;-48
2023/11/02 12:26:28;;;;;;;;;;;;;;;21.02;51.80;100129.84;7395899;19;1853;-49
2023/11/02 12:28:57;;;;;;;;;;;;;;;21.05;51.58;100145.66;7396576;19;1676;-47
2023/11/02 12:31:32;;;;;;;;;;;;;;;21.04;51.84;100125.13;7395096;19;1818;-48
2023/11/02 12:34:01;;;;;;;;;;;;;;;21.00;51.74;100142.59;7395747;19;1818;-49
2023/11/02 12:36:30;;;;;;;;;;;;;;;21.04;51.88;100143.94;7395749;19;1857;-49
2023/11/02 12:38:58;;;;;;;;;;;;;;;21.02;51.87;100137.91;7395197;19;1841;-49
2023/11/02 12:41:30;;;;;;;;;;;;;;;21.00;51.83;100137.22;7395618;19;1782;-48
2023/11/02 12:44:07;;;;;;;;;;;;;;;21.03;51.98;100126.16;7395782;19;1850;-48
2023/11/02 12:46:40;;;;;;;;;;;;;;;21.02;51.91;100140.59;7394908;19;1560;-48
2023/11/02 12:49:16;;;;;;;;;;;;;;;21.05;52.06;100144.81;7393215;19;1785;-48
2023/11/02 12:51:45;;;;;;;;;;;;;;;21.09;52.23;100150.69;7392197;19;1805;-51
2023/11/02 12:54:14;;;;;;;;;;;;;;;21.16;52.35;100130.22;7392057;19;1500;-50
2023/11/02 12:56:44;;;;;;;;;;;;;;;21.33;52.14;100131.94;7394760;19;1256;-51
2023/11/02 12:59:12;;;;;;;;;;;;;;;21.50;52.08;100138.19;7393689;19;1490;-49
2023/11/02 13:01:53;;;;;;;;;;;;;;;21.56;51.63;100136.66;7393546;19;1909;-49
2023/11/02 13:04:23;;;;;;;;;;;;;;;21.57;51.70;100136.50;7393508;19;1869;-51
2023/11/02 13:06:52;;;;;;;;;;;;;;;21.44;52.22;100120.84;7390795;19;1568;-48